createdAt,value
2023-03-02T00:00:13.197Z,-1.80
2023-03-02T00:01:28.835Z,-1.82
2023-03-02T00:02:45.306Z,-1.80
2023-03-02T00:03:55.315Z,-1.75
2023-03-02T00:05:18.722Z,-1.73
2023-03-02T00:06:26.793Z,-1.80
2023-03-02T00:07:38.294Z,-1.74
2023-03-02T00:09:00.744Z,-1.73
2023-03-02T00:10:17.400Z,-1.76
2023-03-02T00:11:35.327Z,-1.70
2023-03-02T00:13:06.578Z,-1.77
2023-03-02T00:14:32.044Z,-1.80
2023-03-02T00:15:41.462Z,-1.79
2023-03-02T00:16:58.205Z,-1.80
2023-03-02T00:18:05.412Z,-1.84
2023-03-02T00:19:21.304Z,-1.85
2023-03-02T00:20:28.955Z,-1.92
2023-03-02T00:21:41.056Z,-1.88
2023-03-02T00:22:52.300Z,-1.93
2023-03-02T00:24:17.332Z,-1.97
2023-03-02T00:25:26.220Z,-2.06
2023-03-02T00:28:01.573Z,-2.13
2023-03-02T00:29:21.461Z,-2.13
2023-03-02T00:30:40.649Z,-2.18
2023-03-02T00:31:57.030Z,-2.23
2023-03-02T00:33:15.939Z,-2.31
2023-03-02T00:34:28.619Z,-2.35
2023-03-02T00:35:53.404Z,-2.32
2023-03-02T00:37:14.412Z,-2.33
2023-03-02T00:38:42.905Z,-2.37
2023-03-02T00:40:05.988Z,-2.39
2023-03-02T00:41:19.088Z,-2.39
2023-03-02T00:42:34.638Z,-2.38
2023-03-02T00:43:50.569Z,-2.44
2023-03-02T00:45:07.097Z,-2.49
2023-03-02T00:46:19.978Z,-2.50
2023-03-02T00:47:35.928Z,-2.52
2023-03-02T00:50:04.762Z,-2.49
2023-03-02T00:51:14.662Z,-2.53
2023-03-02T00:52:25.767Z,-2.50
2023-03-02T00:53:41.479Z,-2.50
2023-03-02T00:54:52.102Z,-2.44
2023-03-02T00:56:04.452Z,-2.45
2023-03-02T00:57:36.851Z,-2.45
2023-03-02T00:58:55.099Z,-2.41
2023-03-02T01:00:09.155Z,-2.43
2023-03-02T01:01:18.745Z,-2.39
2023-03-02T01:02:28.741Z,-2.46
2023-03-02T01:03:44.170Z,-2.47
2023-03-02T01:05:03.932Z,-2.48
2023-03-02T01:06:24.507Z,-2.55
2023-03-02T01:07:33.201Z,-2.59
2023-03-02T01:08:50.348Z,-2.60
2023-03-02T01:10:04.859Z,-2.55
2023-03-02T01:11:31.403Z,-2.58
2023-03-02T01:12:46.170Z,-2.57
2023-03-02T01:14:12.298Z,-2.59
2023-03-02T01:15:23.919Z,-2.59
2023-03-02T01:16:36.689Z,-2.62
2023-03-02T01:17:48.265Z,-2.55
2023-03-02T01:19:08.024Z,-2.56
2023-03-02T01:20:29.477Z,-2.56
2023-03-02T01:21:39.944Z,-2.60
2023-03-02T01:22:55.709Z,-2.61
2023-03-02T01:24:11.920Z,-2.60
2023-03-02T01:25:26.270Z,-2.61
2023-03-02T01:26:40.298Z,-2.58
2023-03-02T01:29:17.919Z,-2.62
2023-03-02T01:30:32.176Z,-2.59
2023-03-02T01:31:35.998Z,-2.62
2023-03-02T01:32:48.408Z,-2.65
2023-03-02T02:54:23.532Z,-3.17
2023-03-02T02:55:27.223Z,-3.21
2023-03-02T02:56:35.055Z,-3.28
2023-03-02T02:57:37.828Z,-3.19
2023-03-02T02:58:47.080Z,-3.20
2023-03-02T02:59:53.093Z,-3.25
2023-03-02T03:00:59.365Z,-3.25
2023-03-02T03:02:02.108Z,-3.28
2023-03-02T03:03:29.358Z,-3.20
2023-03-02T03:04:36.476Z,-3.21
2023-03-02T03:05:38.615Z,-3.22
2023-03-02T03:06:53.309Z,-3.21
2023-03-02T03:08:09.990Z,-3.14
2023-03-02T03:09:15.402Z,-3.13
2023-03-02T03:10:28.976Z,-3.12
2023-03-02T03:11:37.113Z,-3.15
2023-03-02T03:12:40.608Z,-3.18
2023-03-02T03:13:47.921Z,-3.18
2023-03-02T03:14:54.340Z,-3.13
2023-03-02T03:15:57.224Z,-3.10
2023-03-02T03:17:02.353Z,-3.05
2023-03-02T03:18:05.284Z,-3.05
2023-03-02T03:19:18.980Z,-3.02
2023-03-02T03:20:25.649Z,-2.95
2023-03-02T03:21:30.932Z,-2.95
2023-03-02T03:22:35.346Z,-2.94
2023-03-02T03:23:40.649Z,-2.94
2023-03-02T03:24:48.045Z,-2.95
2023-03-02T03:25:53.043Z,-2.89
2023-03-02T03:26:58.830Z,-2.86
2023-03-02T03:28:01.178Z,-2.92
2023-03-02T03:29:06.502Z,-2.89
2023-03-02T03:30:09.991Z,-2.92
2023-03-02T03:31:15.075Z,-2.89
2023-03-02T03:32:20.309Z,-2.92
2023-03-02T03:33:25.479Z,-2.97
2023-03-02T03:34:28.867Z,-2.98
2023-03-02T03:35:34.145Z,-2.97
2023-03-02T03:36:37.799Z,-2.93
2023-03-02T03:37:44.190Z,-2.94
2023-03-02T03:38:46.706Z,-2.92
2023-03-02T03:39:52.110Z,-2.86
2023-03-02T03:40:57.207Z,-2.87
2023-03-02T03:42:02.426Z,-2.80
2023-03-02T03:43:04.876Z,-2.82
2023-03-02T03:44:10.144Z,-2.89
2023-03-02T03:45:13.088Z,-2.89
2023-03-02T03:46:18.056Z,-2.96
2023-03-02T03:47:20.505Z,-2.95
2023-03-02T03:48:26.360Z,-3.04
2023-03-02T03:49:28.666Z,-3.09
2023-03-02T03:50:33.750Z,-3.11
2023-03-02T03:51:36.196Z,-3.14
2023-03-02T03:52:44.139Z,-3.04
2023-03-02T03:53:46.977Z,-3.03
2023-03-02T03:54:52.274Z,-2.98
2023-03-02T03:55:57.786Z,-2.97
2023-03-02T03:57:02.934Z,-2.96
2023-03-02T03:58:05.350Z,-2.97
2023-03-02T03:59:14.397Z,-2.92
2023-03-02T04:00:18.437Z,-2.90
2023-03-02T04:01:23.521Z,-2.99
2023-03-02T04:02:26.703Z,-3.03
2023-03-02T04:03:31.947Z,-3.05
2023-03-02T04:04:35.820Z,-3.02
2023-03-02T04:05:41.332Z,-3.12
2023-03-02T04:06:43.615Z,-3.17
2023-03-02T04:07:49.432Z,-3.18
2023-03-02T04:08:51.880Z,-3.14
2023-03-02T04:10:04.799Z,-3.15
2023-03-02T04:11:09.929Z,-3.22
2023-03-02T04:12:15.242Z,-3.25
2023-03-02T04:13:17.841Z,-3.25
2023-03-02T04:14:24.425Z,-3.25
2023-03-02T04:15:27.172Z,-3.29
2023-03-02T04:16:33.937Z,-3.30
2023-03-02T04:17:36.700Z,-3.28
2023-03-02T04:18:43.840Z,-3.25
2023-03-02T04:19:46.486Z,-3.30
2023-03-02T04:20:51.505Z,-3.26
2023-03-02T04:21:55.792Z,-3.31
2023-03-02T04:23:02.319Z,-3.35
2023-03-02T04:24:05.153Z,-3.38
2023-03-02T04:25:11.030Z,-3.40
2023-03-02T04:26:20.136Z,-3.32
2023-03-02T04:27:25.342Z,-3.32
2023-03-02T04:28:27.585Z,-3.33
2023-03-02T04:29:34.396Z,-3.33
2023-03-02T04:30:36.733Z,-3.43
2023-03-02T04:31:43.611Z,-3.44
2023-03-02T04:32:45.720Z,-3.48
2023-03-02T04:33:50.848Z,-3.45
2023-03-02T04:34:53.297Z,-3.43
2023-03-02T04:35:58.400Z,-3.44
2023-03-02T04:37:00.947Z,-3.42
2023-03-02T04:38:06.719Z,-3.39
2023-03-02T04:39:09.722Z,-3.39
2023-03-02T04:40:16.403Z,-3.39
2023-03-02T04:41:22.899Z,-3.35
2023-03-02T04:42:28.271Z,-3.42
2023-03-02T04:43:30.723Z,-3.45
2023-03-02T04:44:35.545Z,-3.43
2023-03-02T04:45:37.915Z,-3.43
2023-03-02T04:46:44.883Z,-3.49
2023-03-02T04:47:47.188Z,-3.55
2023-03-02T04:48:52.184Z,-3.51
2023-03-02T04:49:55.118Z,-3.51
2023-03-02T04:51:00.043Z,-3.46
2023-03-02T04:52:02.707Z,-3.44
2023-03-02T04:53:07.565Z,-3.49
2023-03-02T04:54:15.734Z,-3.52
2023-03-02T04:55:23.559Z,-3.53
2023-03-02T04:56:30.036Z,-3.50
2023-03-02T04:57:35.548Z,-3.57
2023-03-02T04:58:37.662Z,-3.64
2023-03-02T04:59:43.008Z,-3.55
2023-03-02T05:00:45.461Z,-3.51
2023-03-02T05:01:51.717Z,-3.45
2023-03-02T05:02:54.119Z,-3.43
2023-03-02T05:04:00.719Z,-3.43
2023-03-02T05:05:05.391Z,-3.40
2023-03-02T05:06:11.741Z,-3.40
2023-03-02T05:07:14.112Z,-3.39
2023-03-02T05:08:19.249Z,-3.38
2023-03-02T05:09:27.560Z,-3.32
2023-03-02T05:10:34.271Z,-3.35
2023-03-02T05:11:40.249Z,-3.32
2023-03-02T05:12:58.633Z,-3.30
2023-03-02T05:14:04.413Z,-3.26
2023-03-02T05:15:11.010Z,-3.27
2023-03-02T05:16:13.421Z,-3.21
2023-03-02T05:17:19.039Z,-3.20
2023-03-02T05:18:21.418Z,-3.16
2023-03-02T05:19:27.048Z,-3.19
2023-03-02T05:20:30.897Z,-3.14
2023-03-02T05:21:36.014Z,-3.12
2023-03-02T05:22:38.644Z,-3.13
2023-03-02T05:23:43.962Z,-3.09
2023-03-02T05:24:46.170Z,-3.10
2023-03-02T05:25:51.137Z,-3.11
2023-03-02T05:26:56.398Z,-3.12
2023-03-02T05:28:01.656Z,-3.11
2023-03-02T05:29:04.058Z,-3.09
2023-03-02T05:30:11.473Z,-3.16
2023-03-02T05:31:18.702Z,-3.19
2023-03-02T05:32:24.838Z,-3.22
2023-03-02T05:33:27.539Z,-3.20
2023-03-02T05:34:32.662Z,-3.22
2023-03-02T05:35:35.309Z,-3.25
2023-03-02T05:36:43.248Z,-3.20
2023-03-02T05:37:46.423Z,-3.23
2023-03-02T05:38:51.697Z,-3.26
2023-03-02T05:39:54.203Z,-3.25
2023-03-02T05:40:59.485Z,-3.21
2023-03-02T05:42:06.043Z,-3.24
2023-03-02T05:43:12.205Z,-3.24
2023-03-02T05:44:17.736Z,-3.27
2023-03-02T05:45:23.017Z,-3.27
2023-03-02T05:46:28.111Z,-3.26
2023-03-02T05:47:30.247Z,-3.24
2023-03-02T05:48:35.583Z,-3.23
2023-03-02T05:49:37.735Z,-3.27
2023-03-02T05:50:43.118Z,-3.26
2023-03-02T05:51:45.402Z,-3.28
2023-03-02T05:52:50.408Z,-3.29
2023-03-02T05:53:52.434Z,-3.29
2023-03-02T05:54:59.395Z,-3.33
2023-03-02T05:56:01.722Z,-3.35
2023-03-02T05:57:10.041Z,-3.37
2023-03-02T05:58:18.643Z,-3.38
2023-03-02T05:59:23.817Z,-3.39
2023-03-02T06:00:26.130Z,-3.48
2023-03-02T06:01:31.477Z,-3.53
2023-03-02T06:02:33.882Z,-3.51
2023-03-02T06:03:39.505Z,-3.53
2023-03-02T06:04:43.548Z,-3.46
2023-03-02T06:05:51.100Z,-3.44
2023-03-02T06:06:53.479Z,-3.42
2023-03-02T06:07:59.556Z,-3.39
2023-03-02T06:09:01.976Z,-3.42
2023-03-02T06:10:07.899Z,-3.41
2023-03-02T06:11:10.550Z,-3.40
2023-03-02T06:12:18.313Z,-3.42
2023-03-02T06:13:20.307Z,-3.44
2023-03-02T06:14:25.496Z,-3.46
2023-03-02T06:15:30.011Z,-3.47
2023-03-02T06:16:36.755Z,-3.46
2023-03-02T06:17:40.037Z,-3.39
2023-03-02T06:18:45.186Z,-3.42
2023-03-02T06:19:47.859Z,-3.46
2023-03-02T06:20:53.162Z,-3.51
2023-03-02T06:21:58.115Z,-3.46
2023-03-02T06:23:03.036Z,-3.41
2023-03-02T06:24:08.271Z,-3.42
2023-03-02T06:25:12.324Z,-3.40
2023-03-02T06:26:17.185Z,-3.41
2023-03-02T06:27:22.381Z,-3.41
2023-03-02T06:28:28.054Z,-3.43
2023-03-02T06:29:30.111Z,-3.40
2023-03-02T06:30:35.141Z,-3.41
2023-03-02T06:31:37.313Z,-3.39
2023-03-02T06:32:45.142Z,-3.39
2023-03-02T06:33:47.408Z,-3.40
2023-03-02T06:34:52.169Z,-3.39
2023-03-02T06:35:58.522Z,-3.37
2023-03-02T06:37:00.857Z,-3.29
2023-03-02T06:38:06.533Z,-3.27
2023-03-02T06:39:15.768Z,-3.24
2023-03-02T06:40:21.869Z,-3.18
2023-03-02T06:41:24.778Z,-3.17
2023-03-02T06:42:32.817Z,-3.08
2023-03-02T06:43:38.400Z,-3.05
2023-03-02T06:44:40.678Z,-3.02
2023-03-02T06:45:45.595Z,-3.01
2023-03-02T06:46:47.693Z,-2.95
2023-03-02T06:47:54.127Z,-2.90
2023-03-02T06:48:56.456Z,-2.87
2023-03-02T06:50:01.300Z,-2.86
2023-03-02T06:51:04.044Z,-2.77
2023-03-02T06:52:11.303Z,-2.75
2023-03-02T06:53:18.596Z,-2.70
2023-03-02T06:54:23.117Z,-2.63
2023-03-02T06:55:29.456Z,-2.55
2023-03-02T06:56:31.949Z,-2.48
2023-03-02T06:57:39.991Z,-2.45
2023-03-02T06:58:42.357Z,-2.38
2023-03-02T06:59:47.857Z,-2.32
2023-03-02T07:00:50.123Z,-2.27
2023-03-02T07:01:55.046Z,-2.24
2023-03-02T07:02:57.776Z,-2.21
2023-03-02T07:04:02.604Z,-2.17
2023-03-02T07:05:06.181Z,-2.12
2023-03-02T07:06:13.195Z,-2.02
2023-03-02T07:07:15.338Z,-1.95
2023-03-02T07:08:20.302Z,-1.84
2023-03-02T07:09:22.765Z,-1.77
2023-03-02T07:10:27.997Z,-1.72
2023-03-02T07:11:30.585Z,-1.67
2023-03-02T07:12:35.803Z,-1.60
2023-03-02T07:13:41.402Z,-1.55
2023-03-02T07:14:46.497Z,-1.45
2023-03-02T07:15:51.700Z,-1.41
2023-03-02T07:16:53.766Z,-1.36
2023-03-02T07:17:58.614Z,-1.31
2023-03-02T07:19:03.940Z,-1.21
2023-03-02T07:20:10.034Z,-1.17
2023-03-02T07:21:15.394Z,-1.17
2023-03-02T07:22:17.538Z,-1.12
2023-03-02T07:23:22.241Z,-1.02
2023-03-02T07:24:24.499Z,-1.01
2023-03-02T07:25:29.428Z,-0.93
2023-03-02T07:26:32.015Z,-0.91
2023-03-02T07:27:36.829Z,-0.81
2023-03-02T07:28:43.138Z,-0.80
2023-03-02T07:29:48.041Z,-0.76
2023-03-02T07:30:50.309Z,-0.69
2023-03-02T07:31:58.147Z,-0.64
2023-03-02T07:33:03.131Z,-0.63
2023-03-02T07:34:05.556Z,-0.58
2023-03-02T07:35:11.159Z,-0.51
2023-03-02T07:36:13.723Z,-0.46
2023-03-02T07:37:18.545Z,-0.45
2023-03-02T07:38:20.646Z,-0.43
2023-03-02T07:39:25.524Z,-0.40
2023-03-02T07:40:27.591Z,-0.32
2023-03-02T07:41:33.467Z,-0.24
2023-03-02T07:42:35.936Z,-0.18
2023-03-02T07:43:43.488Z,-0.13
2023-03-02T07:44:45.828Z,-0.08
2023-03-02T07:45:51.180Z,-0.02
2023-03-02T07:46:53.601Z,-0.04
2023-03-02T07:47:58.309Z,0.01
2023-03-02T07:49:03.656Z,0.08
2023-03-02T07:50:10.077Z,0.15
2023-03-02T07:51:15.290Z,0.21
2023-03-02T07:52:20.474Z,0.15
2023-03-02T07:53:22.734Z,0.26
2023-03-02T07:54:30.561Z,0.30
2023-03-02T07:55:35.882Z,0.36
2023-03-02T07:56:40.675Z,0.41
2023-03-02T07:57:45.909Z,0.48
2023-03-02T07:58:50.886Z,0.54
2023-03-02T07:59:55.732Z,0.54
2023-03-02T08:00:57.995Z,0.57
2023-03-02T08:02:02.753Z,0.64
2023-03-02T08:03:07.846Z,0.66
2023-03-02T08:04:13.953Z,0.69
2023-03-02T08:05:17.035Z,0.76
2023-03-02T08:06:21.867Z,0.78
2023-03-02T08:07:23.940Z,0.89
2023-03-02T08:08:30.739Z,0.91
2023-03-02T08:09:32.901Z,0.94
2023-03-02T08:10:38.207Z,1.04
2023-03-02T08:11:43.359Z,0.92
2023-03-02T08:12:50.650Z,0.97
2023-03-02T08:13:55.536Z,1.10
2023-03-02T08:15:00.343Z,1.18
2023-03-02T08:16:03.157Z,1.26
2023-03-02T08:17:08.860Z,1.32
2023-03-02T08:18:10.877Z,1.46
2023-03-02T08:19:15.675Z,1.64
2023-03-02T08:20:17.838Z,1.80
2023-03-02T08:21:25.528Z,2.05
2023-03-02T08:22:30.644Z,2.21
2023-03-02T08:23:35.366Z,2.54
2023-03-02T08:24:37.859Z,2.78
2023-03-02T08:25:45.847Z,3.10
2023-03-02T08:26:47.849Z,3.36
2023-03-02T08:27:52.654Z,3.67
2023-03-02T08:29:00.651Z,3.96
2023-03-02T08:30:02.918Z,4.26
2023-03-02T08:31:09.926Z,4.52
2023-03-02T08:32:12.318Z,4.87
2023-03-02T08:33:18.845Z,5.11
2023-03-02T08:34:23.713Z,5.35
2023-03-02T08:35:28.681Z,5.72
2023-03-02T08:36:34.376Z,5.88
2023-03-02T08:37:36.872Z,6.04
2023-03-02T08:38:42.331Z,6.24
2023-03-02T08:39:44.375Z,6.28
2023-03-02T08:40:49.051Z,6.65
2023-03-02T08:41:51.284Z,6.67
2023-03-02T08:42:57.683Z,6.75
2023-03-02T08:44:09.340Z,7.09
2023-03-02T08:45:15.144Z,7.16
2023-03-02T08:46:18.812Z,7.21
2023-03-02T08:47:23.756Z,7.44
2023-03-02T08:48:27.040Z,7.75
2023-03-02T08:49:32.084Z,7.84
2023-03-02T08:50:34.418Z,7.93
2023-03-02T08:51:40.480Z,8.03
2023-03-02T08:52:42.584Z,8.19
2023-03-02T08:53:50.731Z,8.38
2023-03-02T08:54:55.530Z,8.40
2023-03-02T08:55:57.897Z,8.64
2023-03-02T08:57:02.803Z,8.57
2023-03-02T08:58:08.251Z,8.96
2023-03-02T08:59:16.970Z,8.89
2023-03-02T09:00:20.771Z,9.44
2023-03-02T09:01:28.899Z,9.51
2023-03-02T09:02:30.884Z,8.89
2023-03-02T09:03:38.231Z,9.15
2023-03-02T09:04:43.376Z,9.25
2023-03-02T09:05:48.092Z,8.99
2023-03-02T09:06:53.386Z,9.40
2023-03-02T09:07:55.537Z,9.29
2023-03-02T09:09:00.749Z,9.37
2023-03-02T09:10:06.330Z,9.29
2023-03-02T09:11:09.073Z,9.71
2023-03-02T09:12:14.332Z,9.99
2023-03-02T09:13:16.454Z,9.57
2023-03-02T09:14:25.031Z,9.87
2023-03-02T09:15:27.824Z,9.97
2023-03-02T09:16:33.404Z,10.06
2023-03-02T09:17:36.972Z,10.53
2023-03-02T09:18:42.640Z,10.38
2023-03-02T09:19:47.768Z,10.57
2023-03-02T09:20:50.786Z,10.60
2023-03-02T09:21:55.983Z,11.03
2023-03-02T09:22:58.327Z,11.47
2023-03-02T09:24:05.795Z,11.33
2023-03-02T09:25:11.201Z,11.73
2023-03-02T09:26:16.077Z,11.46
2023-03-02T09:27:21.220Z,11.46
2023-03-02T09:28:27.074Z,11.69
2023-03-02T09:29:34.973Z,11.69
2023-03-02T09:30:37.052Z,11.86
2023-03-02T09:31:41.995Z,12.07
2023-03-02T09:32:44.432Z,12.39
2023-03-02T09:33:49.609Z,12.42
2023-03-02T09:34:51.928Z,12.59
2023-03-02T09:35:59.078Z,12.43
2023-03-02T09:37:04.141Z,12.76
2023-03-02T09:38:13.073Z,13.02
2023-03-02T09:39:19.534Z,12.80
2023-03-02T09:40:27.955Z,12.40
2023-03-02T09:42:03.641Z,12.22
2023-03-02T09:43:29.904Z,12.36
2023-03-02T09:44:53.735Z,12.49
2023-03-02T09:46:05.999Z,12.20
2023-03-02T09:47:33.406Z,12.44
2023-03-02T09:48:44.037Z,12.72
2023-03-02T09:50:01.201Z,12.93
2023-03-02T09:51:21.950Z,13.07
2023-03-02T09:52:34.387Z,13.07
2023-03-02T09:53:46.312Z,13.57
2023-03-02T09:54:51.236Z,13.78
2023-03-02T09:55:59.146Z,14.00
2023-03-02T09:57:04.498Z,14.18
2023-03-02T09:58:11.743Z,14.08
2023-03-02T09:59:25.982Z,13.77
2023-03-02T10:00:32.949Z,13.68
2023-03-02T10:01:43.171Z,14.03
2023-03-02T10:02:51.549Z,14.02
2023-03-02T10:04:00.748Z,14.43
2023-03-02T10:05:11.296Z,14.58
2023-03-02T10:06:16.302Z,14.73
2023-03-02T10:07:29.534Z,14.89
2023-03-02T10:08:39.363Z,14.81
2023-03-02T10:09:45.523Z,14.89
2023-03-02T10:10:53.503Z,15.02
2023-03-02T10:12:16.803Z,15.25
2023-03-02T10:13:23.582Z,15.59
2023-03-02T10:14:35.496Z,15.18
2023-03-02T10:15:49.547Z,15.45
2023-03-02T10:17:03.019Z,15.78
2023-03-02T10:18:21.403Z,15.60
2023-03-02T10:19:32.552Z,15.28
2023-03-02T10:20:44.593Z,15.47
2023-03-02T10:21:52.289Z,15.16
2023-03-02T10:23:05.481Z,15.32
2023-03-02T10:24:24.010Z,15.00
2023-03-02T10:25:40.538Z,14.84
2023-03-02T10:26:48.387Z,15.11
2023-03-02T10:28:00.900Z,15.13
2023-03-02T10:29:17.495Z,15.08
2023-03-02T10:30:27.829Z,14.89
2023-03-02T10:31:36.884Z,15.20
2023-03-02T10:32:52.980Z,15.25
2023-03-02T10:33:58.582Z,15.51
2023-03-02T10:35:17.580Z,15.71
2023-03-02T10:36:27.496Z,15.93
2023-03-02T10:37:33.886Z,16.08
2023-03-02T10:38:38.203Z,15.89
2023-03-02T10:39:43.180Z,16.13
2023-03-02T10:40:53.345Z,16.37
2023-03-02T10:42:03.453Z,15.74
2023-03-02T10:43:06.567Z,16.18
2023-03-02T10:44:18.580Z,15.75
2023-03-02T10:45:26.077Z,15.01
2023-03-02T10:46:47.829Z,15.24
2023-03-02T10:48:00.305Z,14.74
2023-03-02T10:49:05.583Z,15.35
2023-03-02T10:50:23.374Z,15.71
2023-03-02T10:51:31.195Z,16.17
2023-03-02T10:52:37.260Z,16.23
2023-03-02T10:53:39.339Z,16.18
2023-03-02T10:54:44.587Z,16.00
2023-03-02T10:55:48.896Z,16.33
2023-03-02T10:56:58.637Z,16.70
2023-03-02T10:58:07.782Z,16.95
2023-03-02T10:59:30.223Z,16.92
2023-03-02T11:00:38.536Z,17.22
2023-03-02T11:01:46.656Z,16.50
2023-03-02T11:02:53.061Z,16.55
2023-03-02T11:03:56.595Z,16.67
2023-03-02T11:05:14.246Z,16.50
2023-03-02T11:06:25.629Z,16.49
2023-03-02T11:07:29.871Z,16.66
2023-03-02T11:08:35.163Z,16.69
2023-03-02T11:09:37.215Z,16.85
2023-03-02T11:10:44.566Z,16.58
2023-03-02T11:11:54.055Z,16.60
2023-03-02T11:12:59.361Z,16.83
2023-03-02T11:14:19.398Z,16.11
2023-03-02T11:15:25.923Z,16.15
2023-03-02T11:16:35.591Z,16.55
2023-03-02T11:17:45.275Z,16.56
2023-03-02T11:18:56.456Z,17.03
2023-03-02T11:20:01.628Z,17.11
2023-03-02T11:21:09.175Z,16.61
2023-03-02T11:22:22.492Z,16.80
2023-03-02T11:23:36.747Z,15.59
2023-03-02T11:24:43.057Z,16.11
2023-03-02T11:25:53.860Z,16.57
2023-03-02T11:27:03.658Z,16.81
2023-03-02T11:28:20.300Z,17.05
2023-03-02T11:29:34.107Z,16.89
2023-03-02T11:30:42.229Z,16.76
2023-03-02T11:31:50.750Z,16.58
2023-03-02T11:33:01.059Z,15.72
2023-03-02T11:34:18.240Z,15.90
2023-03-02T11:35:32.873Z,16.15
2023-03-02T11:36:45.281Z,15.99
2023-03-02T11:37:54.829Z,15.95
2023-03-02T11:39:00.073Z,16.26
2023-03-02T11:40:20.709Z,16.72
2023-03-02T11:41:31.664Z,17.05
2023-03-02T11:42:39.201Z,17.27
2023-03-02T11:43:41.489Z,17.12
2023-03-02T11:44:46.830Z,17.11
2023-03-02T11:46:00.790Z,16.76
2023-03-02T11:47:06.265Z,16.92
2023-03-02T11:48:22.525Z,17.25
2023-03-02T11:49:34.544Z,17.31
2023-03-02T11:50:48.095Z,17.33
2023-03-02T11:51:59.534Z,17.22
2023-03-02T11:53:10.089Z,17.16
2023-03-02T11:54:34.174Z,16.50
2023-03-02T11:55:45.953Z,16.45
2023-03-02T11:56:48.410Z,16.47
2023-03-02T11:57:56.670Z,16.34
2023-03-02T11:59:02.364Z,16.59
2023-03-02T12:00:15.961Z,16.59
2023-03-02T12:01:24.649Z,16.16
2023-03-02T12:02:31.215Z,16.54
2023-03-02T12:03:41.684Z,16.22
2023-03-02T12:04:46.518Z,16.50
2023-03-02T12:06:01.984Z,16.56
2023-03-02T12:07:23.408Z,16.37
2023-03-02T12:08:40.665Z,16.89
2023-03-02T12:09:45.925Z,16.95
2023-03-02T12:11:03.655Z,16.74
2023-03-02T12:12:41.206Z,16.84
2023-03-02T12:14:06.392Z,17.01
2023-03-02T12:15:37.318Z,16.49
2023-03-02T12:16:49.909Z,16.28
2023-03-02T12:17:52.683Z,16.32
2023-03-02T12:19:07.901Z,16.42
2023-03-02T12:20:30.250Z,16.69
2023-03-02T12:21:43.531Z,16.60
2023-03-02T12:22:45.716Z,16.89
2023-03-02T12:24:04.368Z,16.70
2023-03-02T12:26:07.387Z,16.28
2023-03-02T12:27:27.682Z,16.58
2023-03-02T12:28:36.062Z,16.68
2023-03-02T12:29:41.097Z,16.54
2023-03-02T12:30:46.099Z,16.77
2023-03-02T12:31:53.796Z,16.93
2023-03-02T12:33:03.055Z,15.64
2023-03-02T12:34:35.205Z,16.46
2023-03-02T12:35:41.456Z,16.93
2023-03-02T12:36:47.482Z,16.88
2023-03-02T12:37:57.501Z,16.96
2023-03-02T12:39:20.946Z,16.89
2023-03-02T12:40:40.531Z,16.96
2023-03-02T12:42:10.813Z,16.98
2023-03-02T12:43:31.236Z,16.80
2023-03-02T12:44:49.368Z,16.91
2023-03-02T12:46:16.440Z,16.77
2023-03-02T12:47:28.233Z,16.86
2023-03-02T12:48:37.980Z,17.13
2023-03-02T12:49:54.969Z,16.93
2023-03-02T12:51:07.083Z,17.20
2023-03-02T12:52:24.956Z,17.29
2023-03-02T12:53:28.884Z,17.29
2023-03-02T12:54:35.494Z,17.50
2023-03-02T12:55:38.955Z,17.82
2023-03-02T12:56:44.844Z,17.71
2023-03-02T12:57:54.058Z,17.81
2023-03-02T12:59:02.968Z,17.92
2023-03-02T13:00:18.781Z,18.11
2023-03-02T13:01:23.662Z,18.19
2023-03-02T13:02:31.000Z,18.14
2023-03-02T13:03:36.523Z,17.73
2023-03-02T13:04:38.865Z,18.43
2023-03-02T13:05:47.974Z,18.15
2023-03-02T13:06:50.376Z,17.86
2023-03-02T13:08:01.084Z,18.19
2023-03-02T13:09:03.727Z,18.52
2023-03-02T13:10:20.206Z,18.88
2023-03-02T13:11:27.033Z,19.19
2023-03-02T13:12:32.872Z,19.34
2023-03-02T13:13:42.217Z,19.33
2023-03-02T13:14:50.532Z,19.60
2023-03-02T13:16:00.921Z,19.45
2023-03-02T13:17:03.911Z,19.28
2023-03-02T13:18:11.424Z,19.76
2023-03-02T13:19:17.464Z,19.98
2023-03-02T13:20:24.876Z,20.06
2023-03-02T13:21:38.509Z,20.45
2023-03-02T13:22:43.705Z,20.65
2023-03-02T13:23:50.825Z,20.88
2023-03-02T13:25:02.235Z,21.28
2023-03-02T13:26:08.809Z,21.44
2023-03-02T13:27:17.330Z,21.67
2023-03-02T13:28:32.824Z,21.22
2023-03-02T13:29:35.679Z,21.52
2023-03-02T13:30:47.996Z,21.73
2023-03-02T13:31:53.946Z,21.41
2023-03-02T13:33:01.993Z,21.64
2023-03-02T13:34:08.138Z,21.92
2023-03-02T13:35:25.558Z,21.87
2023-03-02T13:36:39.046Z,22.13
2023-03-02T13:37:47.003Z,22.02
2023-03-02T13:38:51.264Z,22.26
2023-03-02T13:40:02.334Z,22.50
2023-03-02T13:41:10.025Z,22.33
2023-03-02T13:42:26.399Z,21.59
2023-03-02T13:43:40.062Z,21.71
2023-03-02T13:44:42.391Z,21.54
2023-03-02T13:45:55.404Z,21.95
2023-03-02T13:48:35.445Z,22.95
2023-03-02T13:49:40.593Z,22.99
2023-03-02T13:51:01.068Z,23.35
2023-03-02T13:52:14.251Z,23.35
2023-03-02T13:53:20.197Z,23.33
2023-03-02T13:54:30.644Z,22.44
2023-03-02T13:55:37.265Z,22.63
2023-03-02T13:56:41.693Z,22.67
2023-03-02T13:57:48.393Z,22.88
2023-03-02T13:58:50.643Z,22.89
2023-03-02T13:59:56.329Z,23.06
2023-03-02T14:01:01.163Z,22.90
2023-03-02T14:02:30.711Z,23.85
2023-03-02T14:03:33.259Z,24.45
2023-03-02T14:04:40.017Z,22.81
2023-03-02T14:05:45.243Z,23.23
2023-03-02T14:06:50.834Z,23.51
2023-03-02T14:07:56.007Z,23.71
2023-03-02T14:09:00.982Z,24.05
2023-03-02T14:10:05.328Z,23.73
2023-03-02T14:11:11.153Z,24.49
2023-03-02T14:12:23.331Z,25.19
2023-03-02T14:13:32.273Z,25.45
2023-03-02T14:14:39.774Z,25.10
2023-03-02T14:15:47.185Z,25.41
2023-03-02T14:16:52.997Z,25.84
2023-03-02T14:17:57.890Z,26.28
2023-03-02T14:19:09.147Z,26.38
2023-03-02T14:20:19.406Z,25.66
2023-03-02T14:21:27.578Z,26.50
2023-03-02T14:22:32.540Z,26.31
2023-03-02T14:23:43.722Z,25.16
2023-03-02T14:24:46.969Z,24.66
2023-03-02T14:25:54.830Z,24.07
2023-03-02T14:26:57.027Z,23.60
2023-03-02T14:28:02.456Z,22.86
2023-03-02T14:29:17.822Z,22.50
2023-03-02T14:30:24.152Z,22.26
2023-03-02T14:31:29.243Z,21.91
2023-03-02T14:32:31.455Z,21.54
2023-03-02T14:33:37.039Z,20.93
2023-03-02T14:34:39.997Z,20.33
2023-03-02T14:35:46.121Z,19.72
2023-03-02T14:36:53.848Z,19.20
2023-03-02T14:37:59.097Z,18.77
2023-03-02T14:39:15.037Z,18.26
2023-03-02T14:40:28.980Z,17.90
2023-03-02T14:41:34.396Z,17.67
2023-03-02T14:42:43.295Z,17.49
2023-03-02T14:43:45.536Z,17.25
2023-03-02T14:44:53.674Z,16.98
2023-03-02T14:45:58.668Z,16.39
2023-03-02T14:47:01.289Z,16.27
2023-03-02T14:48:06.347Z,15.75
2023-03-02T14:49:08.939Z,15.56
2023-03-02T14:50:16.528Z,15.48
2023-03-02T14:51:24.143Z,15.42
2023-03-02T14:52:34.945Z,15.29
2023-03-02T14:53:51.566Z,14.92
2023-03-02T14:55:03.317Z,15.00
2023-03-02T14:56:09.147Z,14.98
2023-03-02T14:57:19.252Z,14.98
2023-03-02T14:58:32.816Z,14.96
2023-03-02T14:59:34.873Z,14.88
2023-03-02T15:00:42.624Z,14.60
2023-03-02T15:01:45.008Z,14.66
2023-03-02T15:02:50.449Z,14.67
2023-03-02T15:03:56.105Z,14.58
2023-03-02T15:04:58.793Z,14.51
2023-03-02T15:06:04.256Z,14.44
2023-03-02T15:07:06.943Z,14.31
2023-03-02T15:08:14.919Z,14.08
2023-03-02T15:09:17.997Z,13.64
2023-03-02T15:10:25.734Z,13.75
2023-03-02T15:11:32.356Z,13.69
2023-03-02T15:12:35.037Z,13.62
2023-03-02T15:13:40.138Z,13.18
2023-03-02T15:14:42.125Z,13.23
2023-03-02T15:15:47.868Z,13.21
2023-03-02T15:16:50.038Z,13.12
2023-03-02T15:17:54.770Z,13.07
2023-03-02T15:18:58.843Z,12.88
2023-03-02T15:20:03.972Z,12.94
2023-03-02T15:21:10.045Z,12.90
2023-03-02T15:22:13.737Z,12.86
2023-03-02T15:23:19.595Z,12.79
2023-03-02T15:24:23.627Z,12.57
2023-03-02T15:25:31.804Z,12.64
2023-03-02T15:26:33.834Z,12.61
2023-03-02T15:27:39.330Z,12.52
2023-03-02T15:28:41.813Z,12.51
2023-03-02T15:29:48.410Z,12.49
2023-03-02T15:30:50.499Z,12.47
2023-03-02T15:31:55.590Z,12.45
2023-03-02T15:32:59.647Z,12.34
2023-03-02T15:34:04.530Z,12.32
2023-03-02T15:35:07.909Z,12.27
2023-03-02T15:36:13.186Z,12.30
2023-03-02T15:37:15.941Z,12.30
2023-03-02T15:38:20.953Z,12.32
2023-03-02T15:39:26.656Z,12.34
2023-03-02T15:40:31.656Z,12.32
2023-03-02T15:41:36.906Z,12.35
2023-03-02T15:42:42.584Z,12.35
2023-03-02T15:43:45.592Z,12.37
2023-03-02T15:44:51.156Z,12.35
2023-03-02T15:45:53.460Z,12.32
2023-03-02T15:47:00.485Z,12.17
2023-03-02T15:48:05.386Z,12.11
2023-03-02T15:49:10.475Z,12.05
2023-03-02T15:50:16.172Z,11.79
2023-03-02T15:51:18.937Z,11.72
2023-03-02T15:52:24.090Z,11.75
2023-03-02T15:53:27.633Z,11.70
2023-03-02T15:54:32.745Z,11.64
2023-03-02T15:55:41.349Z,11.58
2023-03-02T15:56:49.621Z,11.67
2023-03-02T15:57:54.571Z,11.68
2023-03-02T15:58:59.556Z,11.69
2023-03-02T16:00:02.495Z,11.73
2023-03-02T16:01:16.439Z,11.70
2023-03-02T16:02:22.405Z,11.69
2023-03-02T16:03:24.739Z,11.68